Time;durP1;ratioP1;P1;durP2;ratioP2;P2;SDS_P1;SDS_P2;PMS_P1;PMS_P2;Temp;Humidity;BMP_temperature;BMP_pressure;BME280_temperature;BME280_humidity;BME280_pressure;Samples;Min_cycle;Max_cycle;Signal;HPM_P1;HPM_P2
2022/03/07 00:02:03;;;;;;;12.70;8.40;;;-0.60;99.90;;;;;;4998200;28;20202;-79
2022/03/07 00:04:29;;;;;;;12.10;7.90;;;-0.60;99.90;;;;;;4966447;28;20546;-79
2022/03/07 00:06:55;;;;;;;11.90;8.37;;;-0.50;99.90;;;;;;4982527;28;20187;-78
2022/03/07 00:09:20;;;;;;;11.97;8.20;;;-0.60;99.90;;;;;;4981825;28;20200;-79
2022/03/07 00:11:46;;;;;;;12.47;8.50;;;-0.60;99.90;;;;;;4981704;28;20215;-79
2022/03/07 00:14:12;;;;;;;11.17;8.17;;;-0.70;99.90;;;;;;4998389;28;20701;-78
2022/03/07 00:16:37;;;;;;;12.03;8.40;;;-0.60;99.90;;;;;;4966189;28;20763;-78
2022/03/07 00:19:03;;;;;;;12.00;8.43;;;-0.60;99.90;;;;;;4982100;28;20201;-78
2022/03/07 00:21:29;;;;;;;12.53;8.20;;;-0.50;99.90;;;;;;4981922;28;20565;-78
2022/03/07 00:23:55;;;;;;;12.10;8.30;;;-0.50;99.90;;;;;;4982509;28;20172;-79
2022/03/07 00:26:21;;;;;;;13.90;7.57;;;-0.50;99.90;;;;;;4981604;28;20183;-78
2022/03/07 00:28:47;;;;;;;12.60;8.30;;;-0.50;99.90;;;;;;4981912;28;20289;-79
2022/03/07 00:31:13;;;;;;;12.63;8.60;;;-0.60;99.90;;;;;;4981544;28;20211;-78
2022/03/07 00:33:40;;;;;;;13.90;8.80;;;-0.50;99.90;;;;;;4997868;28;20551;-78
2022/03/07 00:36:06;;;;;;;11.13;7.87;;;-0.50;99.90;;;;;;4998527;28;20222;-78
2022/03/07 00:38:32;;;;;;;10.67;7.83;;;-0.60;99.90;;;;;;4998013;28;20196;-78
2022/03/07 00:40:58;;;;;;;9.33;7.30;;;-0.70;99.90;;;;;;4997287;28;20184;-78
2022/03/07 00:43:24;;;;;;;9.37;6.53;;;-0.80;99.90;;;;;;4981647;28;20179;-79
2022/03/07 00:45:50;;;;;;;11.37;7.57;;;-0.70;99.90;;;;;;4982017;28;20185;-78
2022/03/07 00:48:16;;;;;;;9.97;7.50;;;-0.70;99.90;;;;;;4981539;28;20199;-78
2022/03/07 00:50:47;;;;;;;10.37;7.37;;;-0.70;99.90;;;;;;4981557;28;20207;-78
2022/03/07 00:53:15;;;;;;;9.83;6.83;;;-0.70;99.90;;;;;;4981499;28;20187;-78
2022/03/07 00:55:41;;;;;;;9.70;7.70;;;-0.70;99.90;;;;;;4982100;28;20190;-78
2022/03/07 00:58:06;;;;;;;9.40;7.07;;;-0.60;99.90;;;;;;5005636;22;20208;-77
2022/03/07 01:00:34;;;;;;;8.07;6.40;;;-0.60;99.90;;;;;;4959468;28;20204;-77
2022/03/07 01:03:00;;;;;;;10.53;6.93;;;-0.60;99.90;;;;;;4978216;28;20201;-77
2022/03/07 01:05:25;;;;;;;9.10;6.47;;;-0.70;99.90;;;;;;4962882;28;20648;-77
2022/03/07 01:07:51;;;;;;;8.70;6.77;;;-0.60;99.90;;;;;;4947240;28;20192;-77
2022/03/07 01:10:17;;;;;;;9.53;6.97;;;-0.70;99.90;;;;;;4995847;28;20279;-77
2022/03/07 01:12:43;;;;;;;7.70;5.90;;;-0.70;99.90;;;;;;4978571;28;20172;-77
2022/03/07 01:15:09;;;;;;;11.33;6.77;;;-0.70;99.90;;;;;;4962805;28;20193;-77
2022/03/07 01:17:36;;;;;;;9.47;6.40;;;-0.70;99.90;;;;;;4978583;28;20553;-77
2022/03/07 01:20:04;;;;;;;8.70;6.53;;;-0.70;99.90;;;;;;4946570;28;20204;-77
2022/03/07 01:22:30;;;;;;;9.50;6.43;;;-0.60;99.90;;;;;;4945830;28;20183;-77
2022/03/07 01:24:56;;;;;;;7.37;5.90;;;-0.60;99.90;;;;;;4978558;28;20176;-77
2022/03/07 01:27:21;;;;;;;8.87;6.53;;;-0.60;99.90;;;;;;4978274;28;20607;-77
2022/03/07 01:29:47;;;;;;;8.00;5.83;;;-0.70;99.90;;;;;;4961898;28;20209;-77
2022/03/07 01:32:13;;;;;;;7.97;6.03;;;-0.70;99.90;;;;;;4945711;28;20180;-77
2022/03/07 01:34:38;;;;;;;9.03;7.13;;;-0.80;99.90;;;;;;4977901;28;20268;-77
2022/03/07 01:37:04;;;;;;;7.87;6.10;;;-0.80;99.90;;;;;;4961881;28;20272;-77
2022/03/07 01:39:30;;;;;;;9.90;6.67;;;-0.70;99.90;;;;;;4962036;28;20723;-76
2022/03/07 01:41:56;;;;;;;8.10;5.93;;;-0.70;99.90;;;;;;4977619;28;20177;-77
2022/03/07 01:44:25;;;;;;;8.07;6.43;;;-0.80;99.90;;;;;;4961434;28;20269;-77
2022/03/07 01:46:51;;;;;;;8.77;6.27;;;-0.90;99.90;;;;;;4977705;28;20227;-77
2022/03/07 01:49:18;;;;;;;7.80;6.23;;;-0.80;99.90;;;;;;4961591;28;20201;-77
2022/03/07 01:51:45;;;;;;;9.13;6.27;;;-0.80;99.90;;;;;;4960918;28;20229;-77
2022/03/07 01:54:14;;;;;;;9.30;6.30;;;-0.80;99.90;;;;;;4977586;28;20227;-77
2022/03/07 01:56:45;;;;;;;9.33;6.37;;;-0.80;99.90;;;;;;4961732;28;20178;-77
2022/03/07 01:59:13;;;;;;;8.70;6.20;;;-0.80;99.90;;;;;;4967739;28;20643;-77
2022/03/07 02:01:39;;;;;;;10.10;6.13;;;-0.80;99.90;;;;;;4961445;28;20216;-77
2022/03/07 02:04:05;;;;;;;9.27;7.00;;;-0.80;99.90;;;;;;4993453;28;20177;-77
2022/03/07 02:06:31;;;;;;;8.97;6.23;;;-0.80;99.90;;;;;;4977403;28;20193;-77
2022/03/07 02:08:57;;;;;;;8.27;6.37;;;-0.70;99.90;;;;;;4993444;28;20279;-77
2022/03/07 02:11:24;;;;;;;8.20;6.50;;;-0.70;99.90;;;;;;4977237;28;20217;-77
2022/03/07 02:13:50;;;;;;;9.20;6.47;;;-0.70;99.90;;;;;;4993334;28;20172;-77
2022/03/07 02:16:18;;;;;;;10.07;6.60;;;-0.70;99.90;;;;;;4976979;28;20182;-77
2022/03/07 02:18:44;;;;;;;11.13;6.87;;;-0.70;99.90;;;;;;4976994;28;20576;-77
2022/03/07 02:21:14;;;;;;;8.40;6.37;;;-0.80;99.90;;;;;;4976595;28;20181;-76
2022/03/07 02:23:40;;;;;;;11.27;6.80;;;-0.80;99.90;;;;;;4961213;28;20188;-77
2022/03/07 02:26:17;;;;;;;9.67;6.70;;;-0.80;99.90;;;;;;4993122;28;20263;-77
2022/03/07 02:28:45;;;;;;;9.63;6.37;;;-0.80;99.90;;;;;;4993002;28;20753;-77
2022/03/07 02:31:11;;;;;;;8.80;6.80;;;-0.90;99.90;;;;;;4992856;28;20209;-77
2022/03/07 02:33:37;;;;;;;9.20;7.07;;;-0.90;99.90;;;;;;4993108;28;20169;-77
2022/03/07 02:36:04;;;;;;;9.03;6.37;;;-1.00;99.90;;;;;;4960976;28;20176;-77
2022/03/07 02:38:30;;;;;;;10.40;6.23;;;-0.90;99.90;;;;;;4976637;28;20197;-77
2022/03/07 02:40:55;;;;;;;8.03;6.50;;;-0.90;99.90;;;;;;4960618;28;20186;-77
2022/03/07 02:43:21;;;;;;;8.50;6.53;;;-1.00;99.90;;;;;;4976547;28;20178;-77
2022/03/07 02:45:47;;;;;;;8.57;6.37;;;-0.90;99.90;;;;;;4976519;28;20192;-77
2022/03/07 02:48:13;;;;;;;10.10;6.57;;;-0.90;99.90;;;;;;4976457;28;20188;-77
2022/03/07 02:50:39;;;;;;;9.63;6.30;;;-0.90;99.90;;;;;;4976601;28;20259;-77
2022/03/07 02:53:05;;;;;;;9.83;6.57;;;-0.90;99.90;;;;;;4960504;28;20179;-77
2022/03/07 02:55:31;;;;;;;8.90;6.03;;;-0.80;99.90;;;;;;4976511;28;20181;-77
2022/03/07 02:57:57;;;;;;;8.30;5.77;;;-0.80;99.90;;;;;;4992426;28;20177;-77
2022/03/07 03:00:23;;;;;;;8.93;6.20;;;-0.80;99.90;;;;;;4992342;28;20281;-77
2022/03/07 03:02:49;;;;;;;8.60;6.40;;;-0.80;99.90;;;;;;4992500;28;20182;-77
2022/03/07 03:05:15;;;;;;;8.10;6.07;;;-0.80;99.90;;;;;;4976273;28;20189;-77
2022/03/07 03:07:41;;;;;;;8.47;6.03;;;-0.80;99.90;;;;;;4992543;28;20188;-77
2022/03/07 03:10:07;;;;;;;7.87;6.17;;;-0.70;99.90;;;;;;4976086;28;20212;-77
2022/03/07 03:12:33;;;;;;;8.27;6.10;;;-0.70;99.90;;;;;;4992182;28;20210;-77
2022/03/07 03:14:58;;;;;;;8.63;5.70;;;-0.70;99.90;;;;;;4959953;28;20201;-77
2022/03/07 03:17:25;;;;;;;9.57;6.50;;;-0.60;99.90;;;;;;4976047;28;20280;-77
2022/03/07 03:19:51;;;;;;;8.03;5.67;;;-0.70;99.90;;;;;;4976202;28;20198;-77
2022/03/07 03:22:19;;;;;;;10.53;6.10;;;-0.60;99.90;;;;;;4975546;28;20185;-77
2022/03/07 03:24:48;;;;;;;7.60;6.00;;;-0.60;99.90;;;;;;4976072;28;20170;-77
2022/03/07 03:27:13;;;;;;;7.87;6.33;;;-0.60;99.90;;;;;;4992241;28;20173;-77
2022/03/07 03:29:39;;;;;;;8.40;6.10;;;-0.60;99.90;;;;;;4975752;28;20260;-77
2022/03/07 03:32:05;;;;;;;8.20;5.50;;;-0.60;99.90;;;;;;4992294;28;20188;-77
2022/03/07 03:34:31;;;;;;;7.47;5.73;;;-0.60;99.90;;;;;;4992310;28;20181;-77
2022/03/07 03:36:57;;;;;;;7.67;5.53;;;-0.60;99.90;;;;;;4975770;28;20182;-77
2022/03/07 03:39:22;;;;;;;8.97;5.90;;;-0.60;99.90;;;;;;4975847;28;20204;-77
2022/03/07 03:41:48;;;;;;;7.00;5.23;;;-0.50;99.90;;;;;;4959596;28;20244;-77
2022/03/07 03:44:14;;;;;;;7.97;5.40;;;-0.60;99.90;;;;;;4975701;28;20189;-77
2022/03/07 03:46:40;;;;;;;7.20;5.57;;;-0.60;99.90;;;;;;4959792;28;20188;-77
2022/03/07 03:49:06;;;;;;;8.33;5.97;;;-0.60;99.90;;;;;;4975854;28;20591;-77
2022/03/07 03:51:32;;;;;;;7.90;5.93;;;-0.70;99.90;;;;;;4991675;28;20206;-77
2022/03/07 03:53:58;;;;;;;8.07;5.43;;;-0.60;99.90;;;;;;4975695;28;20698;-77
2022/03/07 03:56:23;;;;;;;8.80;6.03;;;-0.50;99.90;;;;;;4975686;28;20174;-77
2022/03/07 03:58:49;;;;;;;8.43;5.90;;;-0.60;99.90;;;;;;4975234;28;20225;-77
2022/03/07 04:01:14;;;;;;;7.80;5.40;;;-0.50;99.90;;;;;;4959707;28;20559;-77
2022/03/07 04:03:41;;;;;;;9.00;5.50;;;-0.60;99.90;;;;;;4959347;28;20186;-77
2022/03/07 04:06:08;;;;;;;7.37;5.53;;;-0.60;99.90;;;;;;4991816;28;20178;-77
2022/03/07 04:08:35;;;;;;;6.70;5.40;;;-0.50;99.90;;;;;;4975869;28;20256;-77
2022/03/07 04:11:00;;;;;;;6.40;5.30;;;-0.50;99.90;;;;;;4959544;28;20214;-77
2022/03/07 04:13:26;;;;;;;8.03;5.27;;;-0.50;99.90;;;;;;4959415;28;20182;-77
2022/03/07 04:15:52;;;;;;;7.23;5.80;;;-0.50;99.90;;;;;;4959363;28;20190;-77
2022/03/07 04:18:17;;;;;;;7.90;5.93;;;-0.40;99.90;;;;;;4959770;28;20289;-77
2022/03/07 04:20:43;;;;;;;7.87;5.23;;;-0.40;99.90;;;;;;4975605;28;20206;-77
2022/03/07 04:23:09;;;;;;;8.53;5.90;;;-0.50;99.90;;;;;;4975009;28;20197;-77
2022/03/07 04:25:35;;;;;;;7.17;5.47;;;-0.60;99.90;;;;;;4959394;28;20194;-77
2022/03/07 04:28:01;;;;;;;7.83;5.50;;;-0.60;99.90;;;;;;4991485;28;20185;-77
2022/03/07 04:30:27;;;;;;;7.07;5.30;;;-0.60;99.90;;;;;;4975422;28;20676;-77
2022/03/07 04:32:53;;;;;;;7.63;5.83;;;-0.50;99.90;;;;;;4975210;28;20183;-77
2022/03/07 04:35:19;;;;;;;8.33;5.43;;;-0.50;99.90;;;;;;4975653;28;20181;-77
2022/03/07 04:37:44;;;;;;;7.40;5.67;;;-0.50;99.90;;;;;;4979318;28;20174;-77
2022/03/07 04:40:16;;;;;;;7.30;5.97;;;-0.40;99.90;;;;;;4963084;28;20254;-77
2022/03/07 04:42:43;;;;;;;8.53;5.90;;;-0.50;99.90;;;;;;4979253;28;20239;-77
2022/03/07 04:45:12;;;;;;;8.27;5.70;;;-0.50;99.90;;;;;;4995382;28;20177;-77
2022/03/07 04:47:38;;;;;;;8.13;5.90;;;-0.50;99.90;;;;;;4963350;28;20179;-77
2022/03/07 04:50:05;;;;;;;7.33;5.67;;;-0.70;99.90;;;;;;4978989;28;20272;-77
2022/03/07 04:52:32;;;;;;;9.77;5.90;;;-0.70;99.90;;;;;;4962904;28;20249;-77
2022/03/07 04:54:58;;;;;;;7.93;5.77;;;-0.80;99.90;;;;;;4994769;28;20178;-77
2022/03/07 04:57:23;;;;;;;9.13;6.03;;;-0.70;99.90;;;;;;4978650;28;20314;-77
2022/03/07 04:59:49;;;;;;;8.10;5.30;;;-0.60;99.90;;;;;;4962804;28;20225;-77
2022/03/07 05:02:15;;;;;;;6.73;5.13;;;-0.60;99.90;;;;;;4962671;28;20175;-77
2022/03/07 05:04:41;;;;;;;6.67;5.30;;;-0.50;99.90;;;;;;4994952;28;20233;-77
2022/03/07 05:07:07;;;;;;;6.47;5.00;;;-0.50;99.90;;;;;;4994805;28;20249;-77
2022/03/07 05:09:33;;;;;;;8.37;5.33;;;-0.40;99.90;;;;;;4978629;28;20233;-77
2022/03/07 05:11:59;;;;;;;6.03;4.90;;;-0.50;99.90;;;;;;4978282;28;20213;-77
2022/03/07 05:14:25;;;;;;;7.90;4.93;;;-0.50;99.90;;;;;;4994765;28;20282;-77
2022/03/07 05:16:51;;;;;;;8.80;5.30;;;-0.50;99.90;;;;;;4978563;28;20630;-77
2022/03/07 05:19:17;;;;;;;7.33;5.13;;;-0.50;99.90;;;;;;4978640;28;20209;-77
2022/03/07 05:21:43;;;;;;;6.30;4.97;;;-0.40;99.90;;;;;;4961986;28;20290;-77
2022/03/07 05:24:09;;;;;;;7.63;5.53;;;-0.50;99.90;;;;;;4962227;28;20216;-77
2022/03/07 05:26:35;;;;;;;7.63;5.30;;;-0.50;99.90;;;;;;4978487;28;20192;-77
2022/03/07 05:29:03;;;;;;;7.17;4.93;;;-0.50;99.90;;;;;;4978643;28;20211;-77
2022/03/07 05:31:29;;;;;;;8.20;5.27;;;-0.50;99.90;;;;;;4978229;28;20220;-77
2022/03/07 05:33:55;;;;;;;6.33;5.00;;;-0.60;99.90;;;;;;4994777;28;20216;-77
2022/03/07 05:36:20;;;;;;;7.07;4.50;;;-0.50;99.90;;;;;;4994404;28;20207;-77
2022/03/07 05:38:46;;;;;;;5.53;4.17;;;-0.60;99.90;;;;;;4961954;28;20201;-77
2022/03/07 05:41:12;;;;;;;6.57;4.63;;;-0.50;99.90;;;;;;4977995;28;20210;-77
2022/03/07 05:43:37;;;;;;;6.33;4.60;;;-0.60;99.90;;;;;;4977916;28;20186;-77
2022/03/07 05:46:03;;;;;;;7.23;4.60;;;-0.70;99.90;;;;;;4961841;28;20566;-77
2022/03/07 05:48:29;;;;;;;7.33;4.80;;;-0.70;99.90;;;;;;4977456;28;20555;-77
2022/03/07 05:50:54;;;;;;;6.33;4.70;;;-0.60;99.90;;;;;;4977771;28;20256;-77
2022/03/07 05:53:22;;;;;;;6.53;4.93;;;-0.60;99.90;;;;;;4977602;28;20666;-77
2022/03/07 05:55:52;;;;;;;6.30;4.60;;;-0.60;99.90;;;;;;4962297;28;20264;-77
2022/03/07 05:58:18;;;;;;;6.70;4.90;;;-0.60;99.90;;;;;;4977901;28;20199;-77
2022/03/07 06:00:44;;;;;;;6.77;4.63;;;-0.50;99.90;;;;;;4977729;28;20341;-77
2022/03/07 06:03:11;;;;;;;7.37;4.97;;;-0.50;99.90;;;;;;4961301;28;20186;-77
2022/03/07 06:05:37;;;;;;;5.53;4.30;;;-0.50;99.90;;;;;;4977424;28;20553;-80
2022/03/07 06:08:04;;;;;;;6.30;4.87;;;-0.50;99.90;;;;;;4961194;28;20188;-80
2022/03/07 06:10:30;;;;;;;6.23;4.63;;;-0.50;99.90;;;;;;4961385;28;20288;-80
2022/03/07 06:12:55;;;;;;;6.73;4.53;;;-0.50;99.90;;;;;;4961147;28;20642;-80
2022/03/07 06:15:21;;;;;;;5.07;4.00;;;-0.50;99.90;;;;;;4961191;28;20286;-80
2022/03/07 06:17:56;;;;;;;5.67;4.40;;;-0.40;99.90;;;;;;4961159;28;20178;-80
2022/03/07 06:20:23;;;;;;;6.43;4.30;;;-0.40;99.90;;;;;;4961054;28;20182;-80
2022/03/07 06:22:49;;;;;;;5.13;4.07;;;-0.50;99.90;;;;;;4960713;28;20646;-80
2022/03/07 06:25:15;;;;;;;5.93;4.63;;;-0.50;99.90;;;;;;4961092;28;20186;-80
2022/03/07 06:27:41;;;;;;;6.73;4.60;;;-0.40;99.90;;;;;;4977013;28;20597;-80
2022/03/07 06:30:08;;;;;;;6.47;4.30;;;-0.40;99.90;;;;;;4944757;28;20209;-80
2022/03/07 06:32:35;;;;;;;6.93;4.63;;;-0.40;99.90;;;;;;4976694;28;20230;-80
2022/03/07 06:35:02;;;;;;;6.23;4.17;;;-0.40;99.90;;;;;;4960729;28;20590;-80
2022/03/07 06:37:27;;;;;;;5.00;4.03;;;-0.40;99.90;;;;;;4945020;28;20179;-80
2022/03/07 06:39:53;;;;;;;5.07;4.27;;;-0.30;99.90;;;;;;4960718;28;20201;-80
2022/03/07 06:42:18;;;;;;;6.43;4.23;;;-0.30;99.90;;;;;;4944665;28;20177;-80
2022/03/07 06:44:44;;;;;;;5.97;4.50;;;-0.30;99.90;;;;;;4960466;28;20225;-80
2022/03/07 06:47:11;;;;;;;5.77;4.30;;;-0.40;99.90;;;;;;4960516;28;20244;-80
2022/03/07 06:49:37;;;;;;;5.77;4.70;;;-0.40;99.90;;;;;;4976295;28;20195;-80
2022/03/07 06:52:03;;;;;;;4.87;4.17;;;-0.40;99.90;;;;;;4944284;28;20277;-80
2022/03/07 06:54:28;;;;;;;5.43;4.30;;;-0.40;99.90;;;;;;4976405;28;20178;-80
2022/03/07 06:56:54;;;;;;;6.03;4.30;;;-0.30;99.90;;;;;;4944616;28;20210;-80
2022/03/07 06:59:20;;;;;;;5.97;4.57;;;-0.30;99.90;;;;;;5026366;23;20225;-76
2022/03/07 07:01:46;;;;;;;6.03;4.40;;;-0.20;99.90;;;;;;4992169;28;20205;-75
2022/03/07 07:04:11;;;;;;;6.63;4.73;;;-0.20;99.90;;;;;;4975962;28;20205;-77
2022/03/07 07:06:37;;;;;;;5.67;4.43;;;-0.20;99.90;;;;;;4992455;28;20282;-78
2022/03/07 07:09:03;;;;;;;6.27;4.53;;;-0.10;99.90;;;;;;4975993;28;20579;-76
2022/03/07 07:11:29;;;;;;;5.73;4.40;;;0.00;99.90;;;;;;4991963;28;20303;-76
2022/03/07 07:13:54;;;;;;;7.47;4.63;;;-0.10;99.90;;;;;;4992032;28;20338;-76
2022/03/07 07:16:20;;;;;;;7.37;4.60;;;-0.10;99.90;;;;;;4975736;28;20282;-75
2022/03/07 07:18:46;;;;;;;6.40;4.73;;;-0.10;99.90;;;;;;4959742;28;20201;-77
2022/03/07 07:21:11;;;;;;;5.60;4.40;;;0.00;99.90;;;;;;4959626;28;20185;-76
2022/03/07 07:23:37;;;;;;;6.70;4.23;;;0.00;99.90;;;;;;4975789;28;20198;-77
2022/03/07 07:26:06;;;;;;;6.47;4.60;;;0.10;99.90;;;;;;4975615;28;20198;-78
2022/03/07 07:28:33;;;;;;;7.70;4.40;;;0.00;99.90;;;;;;4992089;28;20791;-77
2022/03/07 07:30:58;;;;;;;5.30;4.17;;;0.10;99.90;;;;;;4975598;28;20349;-77
2022/03/07 07:33:24;;;;;;;6.07;4.97;;;0.20;99.90;;;;;;4975289;28;20281;-77
2022/03/07 07:35:50;;;;;;;7.40;4.87;;;0.20;99.90;;;;;;4991741;28;20178;-77
2022/03/07 07:38:15;;;;;;;5.20;4.17;;;0.20;99.90;;;;;;4991731;28;20178;-77
2022/03/07 07:40:41;;;;;;;7.23;4.80;;;0.30;99.90;;;;;;4959584;28;20204;-76
2022/03/07 07:43:07;;;;;;;5.50;4.20;;;0.30;99.90;;;;;;4975213;28;20233;-77
2022/03/07 07:45:32;;;;;;;5.83;4.37;;;0.80;99.90;;;;;;4991626;28;20183;-76
2022/03/07 07:47:59;;;;;;;5.50;4.57;;;1.50;99.90;;;;;;4991508;28;20175;-76
2022/03/07 07:50:25;;;;;;;6.07;4.30;;;1.50;99.90;;;;;;4991497;28;20211;-76
2022/03/07 07:52:51;;;;;;;8.23;5.83;;;1.90;99.90;;;;;;4991289;28;20176;-77
2022/03/07 07:55:16;;;;;;;6.73;5.07;;;2.20;99.90;;;;;;4959445;28;20175;-77
2022/03/07 07:57:42;;;;;;;5.90;4.40;;;2.00;99.90;;;;;;4975232;28;20172;-77
2022/03/07 08:00:10;;;;;;;5.90;4.97;;;1.60;99.90;;;;;;4975430;28;20699;-77
2022/03/07 08:02:36;;;;;;;7.13;4.93;;;1.40;99.90;;;;;;4991187;28;20618;-77
2022/03/07 08:05:03;;;;;;;7.07;4.77;;;1.10;99.90;;;;;;4959504;28;20243;-77
2022/03/07 08:07:28;;;;;;;8.20;6.13;;;0.90;99.90;;;;;;4959323;28;20182;-77
2022/03/07 08:09:54;;;;;;;6.73;5.10;;;0.90;99.90;;;;;;4975164;28;20628;-77
2022/03/07 08:12:20;;;;;;;7.77;6.13;;;0.80;99.90;;;;;;4962518;28;20194;-77
2022/03/07 08:14:45;;;;;;;7.60;5.37;;;0.70;99.90;;;;;;4979129;28;20187;-77
2022/03/07 08:17:12;;;;;;;8.00;5.60;;;0.80;99.90;;;;;;4962952;28;20236;-77
2022/03/07 08:19:38;;;;;;;7.90;6.00;;;0.80;99.90;;;;;;4979047;28;20213;-77
2022/03/07 08:22:04;;;;;;;8.57;6.20;;;0.90;99.90;;;;;;4994943;28;20232;-77
2022/03/07 08:24:30;;;;;;;10.17;6.70;;;0.80;99.90;;;;;;4979092;28;20264;-77
2022/03/07 08:26:55;;;;;;;9.27;6.40;;;0.90;99.90;;;;;;4978999;28;20189;-77
2022/03/07 08:29:21;;;;;;;9.13;6.70;;;1.00;99.90;;;;;;4962814;28;20217;-77
2022/03/07 08:31:47;;;;;;;8.80;6.40;;;1.00;99.90;;;;;;4962668;28;20214;-77
2022/03/07 08:34:12;;;;;;;8.63;6.13;;;1.10;99.90;;;;;;4962612;28;20281;-77
2022/03/07 08:36:38;;;;;;;8.10;6.03;;;1.10;99.90;;;;;;4994892;28;20175;-77
2022/03/07 08:39:04;;;;;;;9.53;6.70;;;1.20;99.90;;;;;;4994553;28;20551;-77
2022/03/07 08:41:30;;;;;;;9.00;6.20;;;1.20;99.90;;;;;;4995304;28;20187;-77
2022/03/07 08:43:55;;;;;;;9.33;7.53;;;1.20;99.90;;;;;;4995337;28;20178;-77
2022/03/07 08:46:22;;;;;;;7.57;5.13;;;1.30;99.90;;;;;;4963324;28;20194;-77
2022/03/07 08:48:48;;;;;;;7.37;5.63;;;1.30;99.90;;;;;;4979025;28;20208;-77
2022/03/07 08:51:13;;;;;;;6.97;5.17;;;1.10;99.90;;;;;;4995059;28;20297;-77
2022/03/07 08:53:39;;;;;;;7.90;6.07;;;1.20;99.90;;;;;;4995520;28;20206;-79
2022/03/07 08:56:05;;;;;;;8.13;6.53;;;1.20;99.90;;;;;;4979173;28;20210;-76
2022/03/07 08:58:31;;;;;;;9.03;6.63;;;1.20;99.90;;;;;;4995220;28;20536;-76
2022/03/07 09:00:57;;;;;;;8.87;5.97;;;1.30;99.90;;;;;;4978714;28;20270;-75
2022/03/07 09:03:22;;;;;;;8.83;7.13;;;1.40;99.90;;;;;;4946614;28;20585;-75
2022/03/07 09:05:48;;;;;;;8.57;6.53;;;1.50;99.90;;;;;;4978914;28;20532;-77
2022/03/07 09:08:13;;;;;;;8.83;6.63;;;1.90;99.90;;;;;;4946875;28;20199;-77
2022/03/07 09:10:39;;;;;;;7.37;6.30;;;1.90;99.90;;;;;;4962670;28;20215;-76
2022/03/07 09:13:05;;;;;;;7.37;6.20;;;2.30;99.90;;;;;;4962295;28;20179;-76
2022/03/07 09:15:31;;;;;;;9.30;6.30;;;2.20;99.90;;;;;;4978598;28;20175;-77
2022/03/07 09:17:56;;;;;;;7.93;6.03;;;2.40;99.90;;;;;;4962540;28;20183;-77
2022/03/07 09:20:22;;;;;;;9.10;6.50;;;2.60;99.90;;;;;;4962800;28;20207;-79
2022/03/07 09:22:48;;;;;;;8.40;6.20;;;2.70;99.90;;;;;;4961307;28;20234;-79
2022/03/07 09:25:15;;;;;;;6.87;5.70;;;2.70;99.90;;;;;;4962836;28;20190;-76
2022/03/07 09:27:43;;;;;;;7.70;6.00;;;2.70;99.90;;;;;;4978646;28;20176;-76
2022/03/07 09:34:10;;;;;;;6.53;5.53;;;2.30;99.90;;;;;;4995622;28;20191;-77
2022/03/07 09:36:36;;;;;;;8.17;6.20;;;2.30;99.90;;;;;;4978643;28;20183;-75
2022/03/07 09:39:02;;;;;;;7.60;6.43;;;2.60;99.90;;;;;;4962542;28;20726;-76
2022/03/07 09:41:28;;;;;;;8.77;6.10;;;2.80;99.90;;;;;;4961870;28;20183;-75
2022/03/07 09:43:55;;;;;;;6.67;6.00;;;3.40;99.90;;;;;;4945851;28;20186;-76
2022/03/07 09:46:21;;;;;;;8.60;5.70;;;3.80;99.90;;;;;;4978676;28;20263;-75
2022/03/07 09:48:46;;;;;;;6.90;5.73;;;4.20;99.90;;;;;;4978221;28;20287;-76
2022/03/07 09:51:12;;;;;;;6.23;5.60;;;4.50;99.90;;;;;;4961846;28;20207;-75
2022/03/07 09:53:37;;;;;;;6.80;5.77;;;4.40;99.90;;;;;;4946170;28;20180;-76
2022/03/07 09:56:03;;;;;;;7.40;5.63;;;4.50;99.90;;;;;;4961952;28;20212;-76
2022/03/07 09:58:29;;;;;;;5.77;5.13;;;4.60;99.90;;;;;;4961197;28;20182;-76
2022/03/07 10:01:09;;;;;;;6.10;5.50;;;4.70;99.90;;;;;;4945619;28;20269;-76
2022/03/07 10:03:35;;;;;;;5.80;5.20;;;4.90;99.90;;;;;;4961454;28;20191;-76
2022/03/07 10:06:01;;;;;;;5.80;5.00;;;4.90;99.90;;;;;;4961745;28;20189;-76
2022/03/07 10:08:29;;;;;;;7.40;5.33;;;5.00;99.90;;;;;;4994773;28;20175;-76
2022/03/07 10:10:56;;;;;;;5.83;5.23;;;5.10;99.90;;;;;;4977383;28;20206;-76
2022/03/07 10:13:23;;;;;;;6.03;5.43;;;5.30;99.90;;;;;;4961366;28;20186;-76
2022/03/07 10:15:58;;;;;;;6.37;5.70;;;5.20;99.90;;;;;;4977467;28;20223;-76
2022/03/07 10:18:28;;;;;;;5.77;5.17;;;5.50;99.90;;;;;;4961334;28;20193;-76
2022/03/07 10:20:57;;;;;;;6.97;5.57;;;5.30;99.90;;;;;;4977507;28;20643;-76
2022/03/07 10:23:25;;;;;;;5.93;5.43;;;5.20;99.90;;;;;;4977060;28;20190;-76
2022/03/07 10:25:51;;;;;;;5.77;5.17;;;5.40;99.90;;;;;;4977594;28;20202;-76
2022/03/07 10:28:18;;;;;;;5.90;5.30;;;5.20;99.90;;;;;;4945531;28;20265;-76
2022/03/07 10:30:44;;;;;;;5.57;4.70;;;5.00;99.90;;;;;;4945202;28;20281;-76
2022/03/07 10:33:13;;;;;;;5.33;4.83;;;5.00;99.90;;;;;;4994238;28;20166;-76
2022/03/07 10:35:49;;;;;;;6.57;5.33;;;5.00;99.90;;;;;;4961084;28;20194;-76
2022/03/07 10:38:17;;;;;;;5.60;5.10;;;5.00;99.90;;;;;;4977384;28;20550;-76
2022/03/07 10:40:47;;;;;;;6.03;5.00;;;5.30;99.90;;;;;;4976989;28;20186;-76
2022/03/07 10:43:14;;;;;;;5.87;5.27;;;5.50;99.90;;;;;;4945349;28;20190;-76
2022/03/07 10:45:57;;;;;;;6.53;5.07;;;5.80;99.90;;;;;;4961110;28;20259;-76
2022/03/07 10:48:25;;;;;;;5.80;5.20;;;5.80;99.90;;;;;;4961779;28;20639;-76
2022/03/07 10:50:59;;;;;;;5.50;5.00;;;5.90;99.90;;;;;;4976989;28;20231;-76
2022/03/07 10:53:25;;;;;;;6.50;5.50;;;5.70;99.90;;;;;;4961185;28;20183;-76
2022/03/07 10:55:56;;;;;;;6.13;5.37;;;5.60;99.90;;;;;;4960556;28;20185;-76
2022/03/07 10:58:22;;;;;;;5.93;5.20;;;5.80;99.90;;;;;;4960819;28;20188;-76
2022/03/07 11:00:57;;;;;;;6.27;4.33;;;5.90;99.90;;;;;;4976573;28;20202;-76
2022/03/07 11:03:31;;;;;;;4.90;3.80;;;6.20;99.90;;;;;;4993754;28;20187;-76
2022/03/07 11:05:58;;;;;;;4.87;4.10;;;6.10;99.90;;;;;;4961423;28;20634;-76
2022/03/07 11:08:24;;;;;;;4.30;3.90;;;6.50;99.90;;;;;;4960337;28;20226;-76
2022/03/07 11:10:52;;;;;;;4.87;4.37;;;6.90;99.90;;;;;;4960337;28;20746;-76
2022/03/07 11:13:25;;;;;;;4.17;3.77;;;7.20;98.00;;;;;;4976257;28;20187;-76
2022/03/07 11:15:51;;;;;;;4.50;3.90;;;7.40;99.90;;;;;;4961152;28;20555;-76
2022/03/07 11:18:19;;;;;;;4.60;4.17;;;7.60;97.10;;;;;;4976538;28;20659;-76
2022/03/07 11:20:47;;;;;;;10.10;7.90;;;7.30;95.50;;;;;;4960828;28;20632;-76
2022/03/07 11:23:14;;;;;;;4.93;4.10;;;7.00;96.20;;;;;;4960388;28;20184;-76
2022/03/07 11:25:40;;;;;;;4.57;3.90;;;7.10;94.80;;;;;;4944116;28;20189;-76
2022/03/07 11:28:06;;;;;;;5.10;4.30;;;6.60;96.10;;;;;;4976203;28;20184;-76
2022/03/07 11:30:39;;;;;;;4.70;4.03;;;6.50;97.50;;;;;;4976164;28;20232;-76
2022/03/07 11:33:12;;;;;;;7.43;6.60;;;6.80;96.40;;;;;;4976190;28;20220;-76
2022/03/07 11:35:49;;;;;;;5.47;4.50;;;6.80;96.40;;;;;;4960262;28;20186;-76
2022/03/07 11:38:14;;;;;;;4.20;3.80;;;7.10;95.70;;;;;;4960663;28;20182;-75
2022/03/07 11:41:07;;;;;;;5.30;4.00;;;6.40;94.30;;;;;;4976136;28;20200;-75
2022/03/07 11:43:46;;;;;;;5.73;4.17;;;7.00;95.00;;;;;;4972765;28;20193;-76
2022/03/07 11:46:24;;;;;;;4.37;3.97;;;7.20;93.20;;;;;;4992812;28;20226;-75
2022/03/07 11:48:50;;;;;;;6.43;5.07;;;7.40;95.20;;;;;;4975946;28;20196;-76
2022/03/07 11:51:26;;;;;;;3.80;3.40;;;7.70;94.10;;;;;;4945497;28;20225;-77
2022/03/07 11:53:53;;;;;;;4.40;3.60;;;7.80;92.90;;;;;;4956162;28;20195;-76
2022/03/07 11:56:27;;;;;;;3.53;3.20;;;8.00;92.00;;;;;;4991220;28;20179;-76
2022/03/07 11:58:56;;;;;;;3.60;3.30;;;8.10;93.10;;;;;;4975755;28;20224;-76
2022/03/07 12:01:24;;;;;;;3.67;3.27;;;8.40;92.20;;;;;;4975537;28;20219;-75
2022/03/07 12:03:50;;;;;;;3.43;3.10;;;7.60;90.40;;;;;;4959932;28;20194;-76
2022/03/07 12:06:19;;;;;;;4.30;3.23;;;7.30;91.70;;;;;;4975708;28;20182;-76
2022/03/07 12:08:52;;;;;;;6.10;3.47;;;7.90;92.70;;;;;;4959702;28;20674;-75
2022/03/07 12:11:25;;;;;;;4.40;3.00;;;8.20;92.50;;;;;;4959440;28;20201;-75
2022/03/07 12:13:51;;;;;;;4.20;3.80;;;8.70;91.00;;;;;;4959675;28;20273;-75
2022/03/07 12:16:43;;;;;;;11.27;8.07;;;8.90;91.10;;;;;;4975896;28;20187;-76
2022/03/07 12:19:08;;;;;;;3.47;3.17;;;9.20;87.80;;;;;;4955744;28;20211;-76
2022/03/07 12:21:36;;;;;;;3.97;3.33;;;8.80;87.20;;;;;;4974008;28;20237;-76
2022/03/07 12:24:02;;;;;;;3.73;3.37;;;8.50;88.20;;;;;;4959506;28;20681;-76
2022/03/07 12:26:28;;;;;;;4.67;3.20;;;8.60;84.90;;;;;;4959460;28;20184;-75
2022/03/07 12:28:54;;;;;;;3.30;3.00;;;8.70;83.10;;;;;;4952739;28;20818;-75
2022/03/07 12:31:19;;;;;;;3.87;3.47;;;8.80;83.20;;;;;;4975464;28;20211;-75
2022/03/07 12:33:48;;;;;;;3.77;3.03;;;9.00;87.90;;;;;;4975412;28;20191;-76
2022/03/07 12:36:15;;;;;;;3.23;2.93;;;9.30;85.70;;;;;;4975445;28;20250;-76
2022/03/07 12:38:53;;;;;;;4.30;3.40;;;9.80;85.20;;;;;;4975322;28;20589;-75
2022/03/07 12:41:36;;;;;;;5.30;4.67;;;9.80;81.80;;;;;;4975539;28;20219;-75
2022/03/07 12:44:03;;;;;;;3.33;3.07;;;9.50;79.70;;;;;;4959658;28;20259;-75
2022/03/07 12:46:29;;;;;;;3.20;2.90;;;9.40;80.30;;;;;;4975566;28;20255;-76
2022/03/07 12:48:57;;;;;;;4.23;3.03;;;9.70;83.80;;;;;;4991512;28;20286;-76
2022/03/07 12:51:24;;;;;;;3.50;3.00;;;9.60;79.20;;;;;;4975458;28;20218;-75
2022/03/07 12:53:55;;;;;;;3.60;3.30;;;9.70;83.60;;;;;;4975459;28;20177;-75